createdAt,value
2022-10-01T00:00:02.152Z,12.22
2022-10-01T00:15:05.789Z,12.24
2022-10-01T00:30:01.946Z,12.3
2022-10-01T00:45:01.621Z,12.31
2022-10-01T01:00:02.273Z,12.3
2022-10-01T01:15:01.882Z,12.32
2022-10-01T01:30:02.554Z,12.33
2022-10-01T01:45:02.235Z,12.27
2022-10-01T02:00:01.896Z,12.17
2022-10-01T02:15:02.583Z,12.05
2022-10-01T02:30:02.272Z,11.99
2022-10-01T02:45:01.900Z,11.88
2022-10-01T03:00:02.600Z,11.73
2022-10-01T03:15:02.241Z,11.65
2022-10-01T03:30:01.979Z,11.58
2022-10-01T03:45:01.610Z,11.45
2022-10-01T04:00:02.299Z,11.4
2022-10-01T04:15:01.960Z,11.3
2022-10-01T04:30:02.200Z,11.23
2022-10-01T04:45:01.843Z,11.22
2022-10-01T05:00:02.527Z,11.12
2022-10-01T05:15:02.134Z,11.08
2022-10-01T05:30:01.798Z,11.09
2022-10-01T05:45:02.429Z,11.1
2022-10-01T06:00:02.044Z,11.15
2022-10-01T06:15:01.689Z,11.18
2022-10-01T06:30:02.400Z,11.2
2022-10-01T06:45:02.080Z,11.27
2022-10-01T07:00:01.728Z,11.35
2022-10-01T07:15:02.343Z,11.41
2022-10-01T07:30:02.029Z,11.54
2022-10-01T07:45:01.670Z,11.61
2022-10-01T08:00:02.275Z,11.75
2022-10-01T08:15:01.962Z,11.88
2022-10-01T08:30:01.668Z,11.99
2022-10-01T08:45:02.289Z,12.24
2022-10-01T09:00:01.900Z,12.54
2022-10-01T09:15:02.549Z,12.76
2022-10-01T09:30:02.275Z,12.9
2022-10-01T09:45:01.940Z,13.14
2022-10-01T10:00:01.641Z,13.52
2022-10-01T10:15:02.289Z,13.76
2022-10-01T10:30:01.927Z,14.16
2022-10-01T10:45:01.544Z,14.59
2022-10-01T11:00:02.184Z,14.88
2022-10-01T11:15:01.870Z,15.45
2022-10-01T11:30:02.570Z,15.52
2022-10-01T11:45:02.238Z,15.75
2022-10-01T12:00:01.871Z,15.69
2022-10-01T12:15:06.437Z,16.04
2022-10-01T12:30:01.787Z,16.34
2022-10-01T12:45:02.432Z,16.39
2022-10-01T13:00:02.134Z,15.54
2022-10-01T13:15:01.787Z,15.06
2022-10-01T13:30:02.488Z,14.96
2022-10-01T13:45:02.121Z,14.78
2022-10-01T14:00:01.781Z,14.73
2022-10-01T14:15:02.475Z,14.93
2022-10-01T14:30:02.154Z,15.3
2022-10-01T14:45:01.755Z,15.52
2022-10-01T15:00:02.356Z,15.55
2022-10-01T15:15:02.007Z,15.28
2022-10-01T15:30:01.774Z,15.09
2022-10-01T15:45:02.422Z,15.17
2022-10-01T16:00:02.111Z,15.25
2022-10-01T16:15:01.721Z,15.17
2022-10-01T16:30:05.440Z,15.22
2022-10-01T16:45:01.582Z,14.93
2022-10-01T17:00:02.226Z,14.72
2022-10-01T17:15:01.897Z,14.53
2022-10-01T17:30:01.585Z,14.22
2022-10-01T17:45:02.220Z,13.91
2022-10-01T18:00:01.867Z,13.73
2022-10-01T18:15:02.570Z,13.6
2022-10-01T18:30:02.225Z,13.43
2022-10-01T18:45:01.885Z,13.2
2022-10-01T19:00:02.554Z,13.07
2022-10-01T19:15:02.213Z,12.96
2022-10-01T19:30:01.856Z,12.95
2022-10-01T19:45:02.495Z,12.88
2022-10-01T20:00:02.100Z,12.79
2022-10-01T20:15:01.787Z,12.64
2022-10-01T20:30:02.436Z,12.55
2022-10-01T20:45:02.117Z,12.47
2022-10-01T21:00:01.719Z,12.34
2022-10-01T21:15:02.389Z,12.23
2022-10-01T21:30:02.018Z,12.13
2022-10-01T21:45:01.666Z,12.04
2022-10-01T22:00:02.453Z,11.97
2022-10-01T22:15:02.140Z,11.88
2022-10-01T22:30:01.754Z,11.72
2022-10-01T22:45:02.414Z,11.65
2022-10-01T23:00:02.052Z,11.6
2022-10-01T23:15:01.689Z,11.61
2022-10-01T23:30:02.305Z,11.55
2022-10-01T23:45:01.897Z,11.57
